createdAt,value
2019-03-16T00:01:37.354Z,97008.35
2019-03-16T00:04:10.200Z,97013.16
2019-03-16T00:06:42.299Z,97012.34
2019-03-16T00:09:15.139Z,97040.50
2019-03-16T00:11:47.804Z,97034.77
2019-03-16T00:14:20.810Z,97035.87
2019-03-16T00:16:52.865Z,97034.67
2019-03-16T00:19:25.524Z,97035.25
2019-03-16T00:21:57.614Z,97026.77
2019-03-16T00:24:29.707Z,97032.69
2019-03-16T00:27:01.803Z,97034.52
2019-03-16T00:29:33.984Z,97039.43
2019-03-16T00:32:13.450Z,97057.39
2019-03-16T00:34:40.236Z,97071.56
2019-03-16T00:37:12.261Z,97073.22
2019-03-16T00:39:44.358Z,97082.47
2019-03-16T00:42:16.867Z,97088.69
2019-03-16T00:44:48.960Z,97083.31
2019-03-16T00:47:21.119Z,97097.61
2019-03-16T00:49:53.030Z,97095.37
2019-03-16T00:52:25.385Z,97094.91
2019-03-16T00:54:57.315Z,97103.83
2019-03-16T00:57:29.939Z,97108.89
2019-03-16T01:00:02.616Z,97112.39
2019-03-16T01:02:34.881Z,97111.73
2019-03-16T01:05:07.793Z,97118.10
2019-03-16T01:07:40.670Z,97117.94
2019-03-16T01:10:13.262Z,97120.69
2019-03-16T01:12:45.531Z,97127.23
2019-03-16T01:15:17.549Z,97119.80
2019-03-16T01:17:49.497Z,97130.16
2019-03-16T01:20:21.437Z,97144.92
2019-03-16T01:22:53.688Z,97125.70
2019-03-16T01:25:25.629Z,97109.80
2019-03-16T01:27:57.642Z,97130.48
2019-03-16T01:30:30.032Z,97133.31
2019-03-16T01:33:01.944Z,97151.28
2019-03-16T01:35:33.868Z,97128.81
2019-03-16T01:38:06.125Z,97121.46
2019-03-16T01:40:38.044Z,97128.52
2019-03-16T01:43:09.969Z,97142.66
2019-03-16T01:45:43.053Z,97140.39
2019-03-16T01:48:15.718Z,97133.42
2019-03-16T01:50:47.640Z,97139.89
2019-03-16T01:53:19.778Z,97134.11
2019-03-16T01:55:52.131Z,97144.24
2019-03-16T01:58:24.064Z,97141.16
2019-03-16T02:00:55.999Z,97151.43
2019-03-16T02:03:28.259Z,97160.52
2019-03-16T02:06:00.513Z,97093.55
2019-03-16T02:08:32.477Z,97179.20
2019-03-16T02:11:05.605Z,97185.72
2019-03-16T02:13:37.537Z,97124.93
2019-03-16T02:16:11.171Z,97146.47
2019-03-16T02:18:43.929Z,97181.50
2019-03-16T02:21:15.686Z,97129.41
2019-03-16T02:23:48.045Z,97180.53
2019-03-16T02:26:20.280Z,97199.89
2019-03-16T02:28:52.857Z,97211.67
2019-03-16T02:31:24.802Z,97193.69
2019-03-16T02:33:56.848Z,97196.07
2019-03-16T02:36:29.889Z,97220.67
2019-03-16T02:39:02.253Z,97203.02
2019-03-16T02:41:34.923Z,97213.59
2019-03-16T02:44:11.122Z,97222.50
2019-03-16T02:46:41.325Z,97226.61
2019-03-16T02:49:13.593Z,97225.63
2019-03-16T02:51:45.944Z,97239.60
2019-03-16T02:54:17.892Z,97259.48
2019-03-16T02:56:49.820Z,97239.97
2019-03-16T02:59:21.751Z,97217.33
2019-03-16T03:01:53.680Z,97227.86
2019-03-16T03:04:25.630Z,97238.56
2019-03-16T03:06:57.559Z,97239.97
2019-03-16T03:09:29.563Z,97234.80
2019-03-16T03:12:01.870Z,97243.49
2019-03-16T03:14:33.789Z,97256.66
2019-03-16T03:17:06.244Z,97259.38
2019-03-16T03:19:38.606Z,97266.86
2019-03-16T03:22:10.526Z,97255.86
2019-03-16T03:24:44.611Z,97251.01
2019-03-16T03:27:16.494Z,97263.13
2019-03-16T03:29:48.425Z,97277.34
2019-03-16T03:32:20.985Z,97277.46
2019-03-16T03:34:53.553Z,97281.63
2019-03-16T03:37:25.469Z,97280.98
2019-03-16T03:39:57.407Z,97276.58
2019-03-16T03:42:29.754Z,97282.11
2019-03-16T03:45:01.675Z,97294.44
2019-03-16T03:47:33.624Z,97298.20
2019-03-16T03:50:07.465Z,97292.44
2019-03-16T03:52:39.391Z,97289.70
2019-03-16T03:55:11.683Z,97279.10
2019-03-16T03:57:43.655Z,97296.03
2019-03-16T04:00:16.298Z,97301.80
2019-03-16T04:02:48.437Z,97293.55
2019-03-16T04:05:20.844Z,97298.03
2019-03-16T04:07:52.773Z,97299.32
2019-03-16T04:10:24.749Z,97300.48
2019-03-16T04:12:56.681Z,97308.14
2019-03-16T04:15:28.631Z,97313.08
2019-03-16T04:18:00.551Z,97310.12
2019-03-16T04:20:32.487Z,97301.06
2019-03-16T04:23:04.411Z,97307.98
2019-03-16T04:25:36.666Z,97306.11
2019-03-16T04:28:09.567Z,97305.63
2019-03-16T04:30:41.516Z,97309.20
2019-03-16T04:33:13.453Z,97326.02
2019-03-16T04:35:45.380Z,97322.12
2019-03-16T04:38:17.320Z,97318.77
2019-03-16T04:40:49.270Z,97319.09
2019-03-16T04:43:21.176Z,97324.70
2019-03-16T04:45:53.531Z,97325.25
2019-03-16T04:48:25.459Z,97333.49
2019-03-16T04:50:57.700Z,97323.36
2019-03-16T04:53:29.941Z,97323.16
2019-03-16T04:56:01.895Z,97322.47
2019-03-16T04:58:33.829Z,97329.75
2019-03-16T05:01:06.181Z,97320.98
2019-03-16T05:03:38.449Z,97326.77
2019-03-16T05:06:10.390Z,97319.27
2019-03-16T05:08:42.330Z,97318.31
2019-03-16T05:11:16.412Z,97321.67
2019-03-16T05:13:48.880Z,97335.97
2019-03-16T05:16:20.861Z,97334.80
2019-03-16T05:18:52.881Z,97337.28
2019-03-16T05:21:25.137Z,97346.35
2019-03-16T05:23:57.073Z,97340.43
2019-03-16T05:26:28.997Z,97343.36
2019-03-16T05:29:00.931Z,97350.88
2019-03-16T05:31:32.867Z,97361.81
2019-03-16T05:34:04.915Z,97364.02
2019-03-16T05:36:36.847Z,97365.09
2019-03-16T05:39:09.991Z,97366.63
2019-03-16T05:41:42.343Z,97384.44
2019-03-16T05:44:14.276Z,97372.23
2019-03-16T05:46:46.530Z,97375.62
2019-03-16T05:49:18.465Z,97378.39
2019-03-16T05:51:50.398Z,97381.97
2019-03-16T05:54:22.759Z,97384.20
2019-03-16T05:56:55.111Z,97385.32
2019-03-16T05:59:27.463Z,97387.36
2019-03-16T06:01:59.389Z,97387.56
2019-03-16T06:04:31.281Z,97387.75
2019-03-16T06:07:03.534Z,97388.20
2019-03-16T06:09:35.434Z,97392.39
2019-03-16T06:12:07.782Z,97384.38
2019-03-16T06:14:40.087Z,97392.05
2019-03-16T06:17:12.064Z,97387.95
2019-03-16T06:19:45.572Z,97385.14
2019-03-16T06:22:17.506Z,97392.40
2019-03-16T06:24:50.396Z,97389.22
2019-03-16T06:27:22.641Z,97399.03
2019-03-16T06:29:55.385Z,97407.25
2019-03-16T06:32:28.048Z,97401.45
2019-03-16T06:35:00.352Z,97405.51
2019-03-16T06:37:32.262Z,97399.63
2019-03-16T06:40:04.701Z,97401.41
2019-03-16T06:42:36.633Z,97397.36
2019-03-16T06:45:08.667Z,97400.08
2019-03-16T06:47:40.717Z,97408.81
2019-03-16T06:50:13.209Z,97405.01
2019-03-16T06:52:47.238Z,97406.17
2019-03-16T06:55:19.557Z,97407.80
2019-03-16T06:57:51.806Z,97406.16
2019-03-16T07:00:23.705Z,97410.41
2019-03-16T07:02:56.368Z,97411.03
2019-03-16T07:05:38.248Z,97409.72
2019-03-16T07:08:02.737Z,97414.63
2019-03-16T07:10:35.678Z,97409.83
2019-03-16T07:13:08.028Z,97419.16
2019-03-16T07:15:40.343Z,97414.60
2019-03-16T07:18:12.602Z,97417.98
2019-03-16T07:20:44.493Z,97416.64
2019-03-16T07:23:16.882Z,97414.08
2019-03-16T07:25:48.816Z,97418.38
2019-03-16T07:28:20.746Z,97416.59
2019-03-16T07:30:53.061Z,97412.20
2019-03-16T07:33:25.405Z,97423.41
2019-03-16T07:35:58.150Z,97420.79
2019-03-16T07:38:30.400Z,97423.23
2019-03-16T07:41:02.329Z,97425.29
2019-03-16T07:43:34.262Z,97422.77
2019-03-16T07:46:06.156Z,97428.60
2019-03-16T07:48:38.094Z,97430.05
2019-03-16T07:51:09.992Z,97430.03
2019-03-16T07:53:41.912Z,97426.19
2019-03-16T07:56:14.120Z,97432.06
2019-03-16T07:58:46.064Z,97435.41
2019-03-16T08:01:18.139Z,97437.48
2019-03-16T08:03:50.491Z,97432.91
2019-03-16T08:06:22.774Z,97440.83
2019-03-16T08:08:55.077Z,97437.56
2019-03-16T08:11:27.520Z,97434.91
2019-03-16T08:13:59.574Z,97439.25
2019-03-16T08:16:32.142Z,97444.28
2019-03-16T08:19:04.396Z,97440.79
2019-03-16T08:21:36.292Z,97438.59
2019-03-16T08:24:08.333Z,97431.83
2019-03-16T08:26:40.644Z,97429.45
2019-03-16T08:29:13.432Z,97433.05
2019-03-16T08:31:46.014Z,97428.55
2019-03-16T08:34:18.684Z,97431.09
2019-03-16T08:36:57.713Z,97429.79
2019-03-16T08:39:30.070Z,97422.87
2019-03-16T08:42:02.376Z,97423.44
2019-03-16T08:44:34.304Z,97425.67
2019-03-16T08:47:07.829Z,97430.81
2019-03-16T08:49:40.501Z,97426.29
2019-03-16T08:52:12.396Z,97428.12
2019-03-16T08:54:44.452Z,97427.83
2019-03-16T08:57:16.802Z,97429.50
2019-03-16T08:59:48.784Z,97442.22
2019-03-16T09:02:21.034Z,97435.66
2019-03-16T09:04:53.801Z,97442.23
2019-03-16T09:07:26.122Z,97428.46
2019-03-16T09:09:58.378Z,97428.16
2019-03-16T09:12:30.284Z,97437.46
2019-03-16T09:15:03.342Z,97440.63
2019-03-16T09:17:35.584Z,97439.45
2019-03-16T09:20:08.432Z,97444.34
2019-03-16T09:22:40.961Z,97452.88
2019-03-16T09:25:13.654Z,97447.42
2019-03-16T09:27:46.047Z,97446.42
2019-03-16T09:30:18.750Z,97454.19
2019-03-16T09:32:50.649Z,97451.99
2019-03-16T09:35:23.036Z,97453.66
2019-03-16T09:37:55.293Z,97449.98
2019-03-16T09:40:27.269Z,97459.91
2019-03-16T09:42:59.595Z,97460.19
2019-03-16T09:45:31.561Z,97458.61
2019-03-16T09:48:04.305Z,97467.77
2019-03-16T09:50:36.527Z,97461.87
2019-03-16T09:53:09.169Z,97459.52
2019-03-16T09:55:41.109Z,97457.31
2019-03-16T09:58:13.004Z,97450.41
2019-03-16T10:00:44.937Z,97447.70
2019-03-16T10:03:17.257Z,97448.72
2019-03-16T10:05:49.192Z,97452.69
2019-03-16T10:08:21.087Z,97451.18
2019-03-16T10:10:53.982Z,97455.16
2019-03-16T10:13:26.424Z,97450.86
2019-03-16T10:15:58.937Z,97452.53
2019-03-16T10:18:30.879Z,97455.37
2019-03-16T10:21:03.567Z,97462.48
2019-03-16T10:23:35.781Z,97460.49
2019-03-16T10:26:07.719Z,97472.45
2019-03-16T10:28:43.913Z,97483.23
2019-03-16T10:31:13.458Z,97490.53
2019-03-16T10:33:45.509Z,97481.69
2019-03-16T10:36:17.615Z,97486.52
2019-03-16T10:38:49.586Z,97490.52
2019-03-16T10:41:21.681Z,97494.06
2019-03-16T10:43:53.665Z,97493.55
2019-03-16T10:46:26.424Z,97497.20
2019-03-16T10:48:59.171Z,97496.98
2019-03-16T10:51:31.859Z,97502.05
2019-03-16T10:54:05.008Z,97509.69
2019-03-16T10:56:37.590Z,97501.67
2019-03-16T10:59:09.800Z,97490.45
2019-03-16T11:01:42.051Z,97490.75
2019-03-16T11:04:13.945Z,97503.61
2019-03-16T11:06:46.712Z,97501.61
2019-03-16T11:09:19.020Z,97497.14
2019-03-16T11:11:51.417Z,97490.23
2019-03-16T11:14:23.647Z,97499.00
2019-03-16T11:16:56.014Z,97501.14
2019-03-16T11:19:28.748Z,97488.05
2019-03-16T11:22:00.997Z,97494.81
2019-03-16T11:24:33.469Z,97476.19
2019-03-16T11:27:05.936Z,97481.21
2019-03-16T11:29:38.263Z,97471.77
2019-03-16T11:32:11.216Z,97465.91
2019-03-16T11:34:43.529Z,97461.59
2019-03-16T11:37:16.295Z,97462.09
2019-03-16T11:39:48.915Z,97467.89
2019-03-16T11:42:20.849Z,97468.56
2019-03-16T11:44:53.739Z,97467.47
2019-03-16T11:47:26.114Z,97468.94
2019-03-16T11:49:58.433Z,97467.43
2019-03-16T11:52:30.582Z,97463.89
2019-03-16T11:55:03.399Z,97468.18
2019-03-16T11:57:35.715Z,97463.48
2019-03-16T12:00:07.948Z,97461.45
2019-03-16T12:02:39.888Z,97459.59
2019-03-16T12:05:12.020Z,97460.88
2019-03-16T12:07:44.030Z,97449.34
2019-03-16T12:10:16.798Z,97457.22
2019-03-16T12:12:49.037Z,97461.84
2019-03-16T12:15:22.102Z,97467.57
2019-03-16T12:17:54.140Z,97466.83
2019-03-16T12:20:26.586Z,97455.81
2019-03-16T12:22:58.976Z,97453.21
2019-03-16T12:25:30.871Z,97450.13
2019-03-16T12:28:03.220Z,97447.71
2019-03-16T12:30:35.450Z,97442.09
2019-03-16T12:33:08.152Z,97445.66
2019-03-16T12:35:40.484Z,97425.47
2019-03-16T12:38:12.797Z,97440.61
2019-03-16T12:40:46.108Z,97431.39
2019-03-16T12:43:18.461Z,97427.98
2019-03-16T12:45:51.092Z,97428.91
2019-03-16T12:48:25.727Z,97427.07
2019-03-16T12:50:57.641Z,97428.20
2019-03-16T12:53:30.002Z,97426.04
2019-03-16T12:56:02.223Z,97430.67
2019-03-16T12:58:34.251Z,97427.26
2019-03-16T13:01:06.897Z,97432.81
2019-03-16T13:03:38.832Z,97426.36
2019-03-16T13:06:11.145Z,97429.56
2019-03-16T13:08:43.096Z,97428.77
2019-03-16T13:11:15.688Z,97426.48
2019-03-16T13:13:47.627Z,97428.73
2019-03-16T13:16:20.581Z,97421.12
2019-03-16T13:18:53.462Z,97418.23
2019-03-16T13:21:25.357Z,97417.31
2019-03-16T13:23:57.453Z,97406.06
2019-03-16T13:26:29.794Z,97401.78
2019-03-16T13:29:02.599Z,97392.40
2019-03-16T13:31:34.597Z,97395.05
2019-03-16T13:34:07.133Z,97386.11
2019-03-16T13:36:39.195Z,97392.94
2019-03-16T13:39:12.312Z,97380.28
2019-03-16T13:41:44.678Z,97376.45
2019-03-16T13:44:16.768Z,97384.11
2019-03-16T13:46:48.829Z,97383.33
2019-03-16T13:49:21.329Z,97379.89
2019-03-16T13:51:54.253Z,97374.09
2019-03-16T13:54:28.110Z,97365.35
2019-03-16T13:57:00.482Z,97364.63
2019-03-16T13:59:34.625Z,97366.84
2019-03-16T14:02:07.420Z,97365.50
2019-03-16T14:04:40.715Z,97357.88
2019-03-16T14:07:12.772Z,97354.25
2019-03-16T14:09:44.871Z,97343.64
2019-03-16T14:12:17.467Z,97342.42
2019-03-16T14:14:49.878Z,97333.66
2019-03-16T14:17:21.962Z,97325.85
2019-03-16T14:19:54.465Z,97327.84
2019-03-16T14:22:27.273Z,97316.72
2019-03-16T14:25:00.518Z,97329.67
2019-03-16T14:27:33.238Z,97318.72
2019-03-16T14:30:06.176Z,97313.89
2019-03-16T14:32:38.240Z,97317.80
2019-03-16T14:35:10.423Z,97316.88
2019-03-16T14:37:42.902Z,97314.57
2019-03-16T14:40:16.517Z,97303.93
2019-03-16T14:42:48.529Z,97299.03
2019-03-16T14:45:21.461Z,97294.73
2019-03-16T14:47:53.846Z,97292.67
2019-03-16T14:50:25.963Z,97305.66
2019-03-16T14:52:59.004Z,97302.04
2019-03-16T14:55:31.034Z,97303.58
2019-03-16T14:58:03.434Z,97301.12
2019-03-16T15:00:38.706Z,97297.48
2019-03-16T15:03:11.026Z,97301.73
2019-03-16T15:05:45.976Z,97297.78
2019-03-16T15:08:17.908Z,97292.83
2019-03-16T15:10:50.320Z,97293.69
2019-03-16T15:13:22.384Z,97294.27
2019-03-16T15:15:55.592Z,97294.63
2019-03-16T15:18:27.650Z,97283.95
2019-03-16T15:20:59.994Z,97287.09
2019-03-16T15:23:32.039Z,97274.59
2019-03-16T15:26:04.653Z,97281.14
2019-03-16T15:28:36.716Z,97290.75
2019-03-16T15:31:08.875Z,97288.55
2019-03-16T15:33:41.590Z,97285.89
2019-03-16T15:36:13.704Z,97286.52
2019-03-16T15:38:46.076Z,97287.29
2019-03-16T15:41:18.596Z,97287.17
2019-03-16T15:43:50.658Z,97280.66
2019-03-16T15:46:22.687Z,97278.41
2019-03-16T15:48:54.669Z,97270.59
2019-03-16T15:51:27.104Z,97276.95
2019-03-16T15:53:59.154Z,97278.94
2019-03-16T15:56:31.283Z,97271.38
2019-03-16T15:59:03.863Z,97270.84
2019-03-16T16:01:36.296Z,97274.05
2019-03-16T16:04:08.661Z,97271.58
2019-03-16T16:06:40.759Z,97273.00
2019-03-16T16:09:13.499Z,97271.56
2019-03-16T16:11:46.021Z,97271.20
2019-03-16T16:14:18.391Z,97264.61
2019-03-16T16:16:50.853Z,97261.36
2019-03-16T16:19:23.722Z,97263.14
2019-03-16T16:21:55.815Z,97265.69
2019-03-16T16:24:28.429Z,97258.33
2019-03-16T16:27:00.759Z,97248.14
2019-03-16T16:29:33.048Z,97249.37
2019-03-16T16:32:05.249Z,97243.52
2019-03-16T16:34:37.628Z,97246.88
2019-03-16T16:37:09.663Z,97251.55
2019-03-16T16:39:41.718Z,97250.55
2019-03-16T16:42:14.535Z,97256.27
2019-03-16T16:44:48.731Z,97247.61
2019-03-16T16:47:21.586Z,97248.81
2019-03-16T16:49:53.640Z,97255.08
2019-03-16T16:52:26.103Z,97250.84
2019-03-16T16:54:58.509Z,97252.39
2019-03-16T16:57:30.565Z,97250.25
2019-03-16T17:00:03.393Z,97244.41
2019-03-16T17:02:35.579Z,97246.91
2019-03-16T17:05:08.018Z,97241.23
2019-03-16T17:07:40.111Z,97242.92
2019-03-16T17:10:14.853Z,97241.43
2019-03-16T17:12:47.044Z,97240.06
2019-03-16T17:15:19.786Z,97239.61
2019-03-16T17:17:51.806Z,97242.16
2019-03-16T17:20:24.093Z,97241.20
2019-03-16T17:22:56.926Z,97231.33
2019-03-16T17:25:29.317Z,97224.68
2019-03-16T17:28:01.333Z,97225.65
2019-03-16T17:30:33.352Z,97226.72
2019-03-16T17:33:05.546Z,97220.09
2019-03-16T17:35:38.069Z,97217.81
2019-03-16T17:38:10.207Z,97218.41
2019-03-16T17:40:42.604Z,97218.09
2019-03-16T17:43:15.115Z,97212.86
2019-03-16T17:45:57.767Z,97203.13
2019-03-16T17:48:30.300Z,97210.26
2019-03-16T17:51:02.362Z,97214.30
2019-03-16T17:53:34.461Z,97213.88
2019-03-16T17:56:06.842Z,97213.89
2019-03-16T17:58:39.270Z,97220.47
2019-03-16T18:01:11.488Z,97208.95
2019-03-16T18:03:43.423Z,97213.03
2019-03-16T18:06:16.328Z,97210.45
2019-03-16T18:08:49.005Z,97211.72
2019-03-16T18:11:21.244Z,97216.99
2019-03-16T18:13:53.563Z,97216.00
2019-03-16T18:16:25.792Z,97222.49
2019-03-16T18:18:57.736Z,97211.67
2019-03-16T18:21:30.061Z,97214.91
2019-03-16T18:24:02.002Z,97211.75
2019-03-16T18:26:33.910Z,97212.80
2019-03-16T18:29:05.855Z,97207.44
2019-03-16T18:31:37.754Z,97208.91
2019-03-16T18:34:10.427Z,97204.88
2019-03-16T18:36:42.316Z,97203.01
2019-03-16T18:39:14.264Z,97205.19
2019-03-16T18:41:46.575Z,97201.42
2019-03-16T18:44:19.565Z,97200.31
2019-03-16T18:46:51.889Z,97203.95
2019-03-16T18:49:25.077Z,97195.19
2019-03-16T18:51:57.296Z,97197.84
2019-03-16T18:54:29.243Z,97199.94
2019-03-16T18:57:02.354Z,97191.58
2019-03-16T18:59:34.715Z,97186.94
2019-03-16T19:02:19.964Z,97184.98
2019-03-16T19:04:41.419Z,97183.64
2019-03-16T19:07:13.640Z,97189.02
2019-03-16T19:09:45.903Z,97189.30
2019-03-16T19:12:18.145Z,97192.11
2019-03-16T19:14:50.065Z,97189.98
2019-03-16T19:17:22.380Z,97197.73
2019-03-16T19:19:54.326Z,97197.14
2019-03-16T19:22:26.591Z,97184.68
2019-03-16T19:24:59.363Z,97179.28
2019-03-16T19:27:32.004Z,97187.36
2019-03-16T19:30:04.681Z,97176.80
2019-03-16T19:32:37.857Z,97167.64
2019-03-16T19:35:10.208Z,97171.29
2019-03-16T19:37:42.638Z,97173.03
2019-03-16T19:40:15.643Z,97169.92
2019-03-16T19:42:47.648Z,97170.94
2019-03-16T19:45:20.331Z,97162.62
2019-03-16T19:47:53.178Z,97161.38
2019-03-16T19:50:25.129Z,97159.55
2019-03-16T19:52:57.340Z,97155.18
2019-03-16T19:55:29.277Z,97162.43
2019-03-16T19:58:01.596Z,97155.00
2019-03-16T20:00:33.955Z,97148.59
2019-03-16T20:03:06.801Z,97148.17
2019-03-16T20:05:39.586Z,97149.63
2019-03-16T20:08:12.527Z,97148.18
2019-03-16T20:10:44.937Z,97153.70
2019-03-16T20:13:17.814Z,97157.00
2019-03-16T20:15:50.493Z,97152.59
2019-03-16T20:18:22.813Z,97155.41
2019-03-16T20:20:55.062Z,97154.83
2019-03-16T20:23:27.449Z,97159.06
2019-03-16T20:25:59.384Z,97152.41
2019-03-16T20:28:31.714Z,97151.97
2019-03-16T20:31:03.671Z,97152.45
2019-03-16T20:33:36.905Z,97152.61
2019-03-16T20:36:10.016Z,97154.04
2019-03-16T20:38:42.850Z,97149.91
2019-03-16T20:41:15.198Z,97149.60
2019-03-16T20:43:47.592Z,97143.69
2019-03-16T20:46:19.534Z,97144.97
2019-03-16T20:48:52.269Z,97156.31
2019-03-16T20:51:24.257Z,97157.45
2019-03-16T20:53:56.521Z,97165.00
2019-03-16T20:56:28.455Z,97163.08
2019-03-16T20:59:01.195Z,97161.02
2019-03-16T21:01:33.537Z,97163.61
2019-03-16T21:04:05.626Z,97164.91
2019-03-16T21:06:37.992Z,97162.84
2019-03-16T21:09:11.083Z,97155.82
2019-03-16T21:11:43.156Z,97147.78
2019-03-16T21:14:15.057Z,97152.30
2019-03-16T21:16:47.047Z,97159.05
2019-03-16T21:19:19.831Z,97161.02
2019-03-16T21:21:51.756Z,97158.36
2019-03-16T21:24:24.286Z,97145.13
2019-03-16T21:26:56.539Z,97146.35
2019-03-16T21:29:28.425Z,97145.23
2019-03-16T21:32:00.779Z,97136.20
2019-03-16T21:34:33.464Z,97144.90
2019-03-16T21:37:06.782Z,97150.17
2019-03-16T21:39:38.698Z,97152.87
2019-03-16T21:42:11.073Z,97154.64
2019-03-16T21:44:42.966Z,97151.64
2019-03-16T21:47:15.471Z,97150.85
2019-03-16T21:49:48.519Z,97150.64
2019-03-16T21:52:20.915Z,97146.91
2019-03-16T21:54:53.553Z,97146.80
2019-03-16T21:57:25.824Z,97145.70
2019-03-16T21:59:58.170Z,97146.44
2019-03-16T22:02:30.103Z,97147.12
2019-03-16T22:05:02.321Z,97143.77
2019-03-16T22:07:34.245Z,97142.58
2019-03-16T22:10:06.857Z,97140.00
2019-03-16T22:12:39.220Z,97140.36
2019-03-16T22:15:12.211Z,97134.59
2019-03-16T22:17:45.184Z,97124.12
2019-03-16T22:20:17.940Z,97115.98
2019-03-16T22:22:50.599Z,97116.36
2019-03-16T22:25:22.491Z,97112.60
2019-03-16T22:27:54.860Z,97115.03
2019-03-16T22:30:26.752Z,97109.14
2019-03-16T22:32:58.675Z,97116.14
2019-03-16T22:35:30.885Z,97109.78
2019-03-16T22:38:03.239Z,97103.81
2019-03-16T22:40:35.552Z,97104.34
2019-03-16T22:43:07.484Z,97100.59
2019-03-16T22:45:39.812Z,97102.41
2019-03-16T22:48:12.072Z,97092.15
2019-03-16T22:50:44.394Z,97097.31
2019-03-16T22:53:16.765Z,97090.61
2019-03-16T22:55:49.052Z,97084.60
2019-03-16T22:58:21.313Z,97086.04
2019-03-16T23:00:54.696Z,97087.20
2019-03-16T23:03:26.616Z,97076.58
2019-03-16T23:05:58.938Z,97072.55
2019-03-16T23:08:31.387Z,97068.52
2019-03-16T23:11:03.705Z,97061.55
2019-03-16T23:13:35.640Z,97061.17
2019-03-16T23:16:07.621Z,97060.54
2019-03-16T23:18:40.283Z,97057.23
2019-03-16T23:21:12.600Z,97055.88
2019-03-16T23:23:44.547Z,97047.45
2019-03-16T23:26:16.753Z,97042.48
2019-03-16T23:28:49.670Z,97040.00
2019-03-16T23:31:21.989Z,97036.08
2019-03-16T23:33:53.917Z,97032.29
2019-03-16T23:36:25.908Z,97026.80
2019-03-16T23:38:58.156Z,97020.44
2019-03-16T23:41:30.047Z,97014.83
2019-03-16T23:44:01.977Z,97009.95
2019-03-16T23:46:34.198Z,97008.63
2019-03-16T23:49:06.562Z,97009.10
2019-03-16T23:51:38.973Z,96998.48
2019-03-16T23:54:11.218Z,96997.45
2019-03-16T23:56:43.093Z,96998.25
2019-03-16T23:59:15.017Z,96997.89
